sensor_id;sensor_type;location;lat;lon;timestamp;temperature;humidity
530;DHT22;251;48.704;9.210;2023-04-01T00:00:23;8.40;44.10
530;DHT22;251;48.704;9.210;2023-04-01T00:02:50;8.60;44.20
530;DHT22;251;48.704;9.210;2023-04-01T00:05:17;8.60;44.20
530;DHT22;251;48.704;9.210;2023-04-01T00:07:44;8.70;44.30
530;DHT22;251;48.704;9.210;2023-04-01T00:10:14;8.40;44.40
530;DHT22;251;48.704;9.210;2023-04-01T00:12:41;8.40;43.40
530;DHT22;251;48.704;9.210;2023-04-01T00:15:11;8.40;44.50
530;DHT22;251;48.704;9.210;2023-04-01T00:17:38;8.40;44.50
530;DHT22;251;48.704;9.210;2023-04-01T00:20:06;8.60;44.00
530;DHT22;251;48.704;9.210;2023-04-01T00:22:33;8.50;44.80
530;DHT22;251;48.704;9.210;2023-04-01T00:25:00;8.50;43.80
530;DHT22;251;48.704;9.210;2023-04-01T00:27:29;8.50;44.20
530;DHT22;251;48.704;9.210;2023-04-01T00:29:56;8.60;43.90
530;DHT22;251;48.704;9.210;2023-04-01T00:32:23;8.50;43.50
530;DHT22;251;48.704;9.210;2023-04-01T00:34:50;8.70;43.60
530;DHT22;251;48.704;9.210;2023-04-01T00:37:18;8.60;43.20
530;DHT22;251;48.704;9.210;2023-04-01T00:39:45;8.60;44.00
530;DHT22;251;48.704;9.210;2023-04-01T00:42:12;8.60;43.00
530;DHT22;251;48.704;9.210;2023-04-01T00:44:41;8.50;43.70
530;DHT22;251;48.704;9.210;2023-04-01T00:47:08;8.50;43.30
530;DHT22;251;48.704;9.210;2023-04-01T00:49:38;8.50;44.10
530;DHT22;251;48.704;9.210;2023-04-01T00:52:07;8.50;43.90
530;DHT22;251;48.704;9.210;2023-04-01T00:54:36;8.50;44.30
530;DHT22;251;48.704;9.210;2023-04-01T00:57:06;8.40;44.70
530;DHT22;251;48.704;9.210;2023-04-01T00:59:37;8.40;42.80
530;DHT22;251;48.704;9.210;2023-04-01T01:02:08;8.50;43.00
530;DHT22;251;48.704;9.210;2023-04-01T01:04:36;8.60;43.90
530;DHT22;251;48.704;9.210;2023-04-01T01:07:15;8.50;43.40
530;DHT22;251;48.704;9.210;2023-04-01T01:09:47;8.40;43.40
530;DHT22;251;48.704;9.210;2023-04-01T01:12:18;8.70;44.90
530;DHT22;251;48.704;9.210;2023-04-01T01:14:52;8.60;45.00
530;DHT22;251;48.704;9.210;2023-04-01T01:17:29;8.40;44.80
530;DHT22;251;48.704;9.210;2023-04-01T01:23:32;8.50;45.40
530;DHT22;251;48.704;9.210;2023-04-01T01:26:19;8.60;45.90
530;DHT22;251;48.704;9.210;2023-04-01T01:28:58;8.70;46.00
530;DHT22;251;48.704;9.210;2023-04-01T01:31:34;8.60;45.60
530;DHT22;251;48.704;9.210;2023-04-01T01:34:11;8.40;45.80
530;DHT22;251;48.704;9.210;2023-04-01T01:36:44;8.50;45.00
530;DHT22;251;48.704;9.210;2023-04-01T01:39:13;8.50;45.60
530;DHT22;251;48.704;9.210;2023-04-01T01:41:42;8.60;45.40
530;DHT22;251;48.704;9.210;2023-04-01T01:44:14;8.50;45.30
530;DHT22;251;48.704;9.210;2023-04-01T01:46:43;8.40;45.20
530;DHT22;251;48.704;9.210;2023-04-01T01:49:12;8.50;45.60
530;DHT22;251;48.704;9.210;2023-04-01T01:51:40;8.70;45.80
530;DHT22;251;48.704;9.210;2023-04-01T01:54:13;8.50;45.60
530;DHT22;251;48.704;9.210;2023-04-01T01:56:41;8.60;46.70
530;DHT22;251;48.704;9.210;2023-04-01T01:59:10;8.40;47.30
530;DHT22;251;48.704;9.210;2023-04-01T02:01:41;8.20;47.40
530;DHT22;251;48.704;9.210;2023-04-01T02:04:13;8.60;47.70
530;DHT22;251;48.704;9.210;2023-04-01T02:06:44;8.20;47.50
530;DHT22;251;48.704;9.210;2023-04-01T02:09:15;8.20;47.10
530;DHT22;251;48.704;9.210;2023-04-01T02:11:45;8.50;46.80
530;DHT22;251;48.704;9.210;2023-04-01T02:14:15;8.10;47.50
530;DHT22;251;48.704;9.210;2023-04-01T02:16:47;8.40;47.00
530;DHT22;251;48.704;9.210;2023-04-01T02:19:17;8.40;47.10
530;DHT22;251;48.704;9.210;2023-04-01T02:21:50;8.10;46.60
530;DHT22;251;48.704;9.210;2023-04-01T02:24:19;8.10;46.30
530;DHT22;251;48.704;9.210;2023-04-01T02:26:48;8.10;45.40
530;DHT22;251;48.704;9.210;2023-04-01T02:29:18;8.10;45.10
530;DHT22;251;48.704;9.210;2023-04-01T02:31:46;8.20;45.40
530;DHT22;251;48.704;9.210;2023-04-01T02:34:13;8.10;44.30
530;DHT22;251;48.704;9.210;2023-04-01T02:36:41;8.20;45.10
530;DHT22;251;48.704;9.210;2023-04-01T02:39:11;8.20;45.30
530;DHT22;251;48.704;9.210;2023-04-01T02:41:42;8.10;44.70
530;DHT22;251;48.704;9.210;2023-04-01T02:44:09;8.00;44.00
530;DHT22;251;48.704;9.210;2023-04-01T02:46:36;8.30;43.90
530;DHT22;251;48.704;9.210;2023-04-01T02:49:04;8.20;44.20
530;DHT22;251;48.704;9.210;2023-04-01T02:51:31;7.90;43.50
530;DHT22;251;48.704;9.210;2023-04-01T02:53:58;8.10;44.40
530;DHT22;251;48.704;9.210;2023-04-01T02:56:25;8.10;43.00
530;DHT22;251;48.704;9.210;2023-04-01T02:58:54;8.10;42.30
530;DHT22;251;48.704;9.210;2023-04-01T03:01:21;8.20;42.70
530;DHT22;251;48.704;9.210;2023-04-01T03:03:48;8.10;42.10
530;DHT22;251;48.704;9.210;2023-04-01T03:06:16;8.10;41.70
530;DHT22;251;48.704;9.210;2023-04-01T03:08:44;8.10;42.20
530;DHT22;251;48.704;9.210;2023-04-01T03:11:12;7.80;41.40
530;DHT22;251;48.704;9.210;2023-04-01T03:13:38;8.10;41.40
530;DHT22;251;48.704;9.210;2023-04-01T03:16:07;8.20;41.60
530;DHT22;251;48.704;9.210;2023-04-01T03:18:34;8.10;41.30
530;DHT22;251;48.704;9.210;2023-04-01T03:21:13;7.90;41.50
530;DHT22;251;48.704;9.210;2023-04-01T03:23:40;7.80;41.20
530;DHT22;251;48.704;9.210;2023-04-01T03:26:07;7.80;39.80
530;DHT22;251;48.704;9.210;2023-04-01T03:28:35;7.80;40.40
530;DHT22;251;48.704;9.210;2023-04-01T03:31:02;7.80;40.50
530;DHT22;251;48.704;9.210;2023-04-01T03:33:36;7.70;40.40
530;DHT22;251;48.704;9.210;2023-04-01T03:36:03;7.80;41.10
530;DHT22;251;48.704;9.210;2023-04-01T03:38:32;7.80;40.60
530;DHT22;251;48.704;9.210;2023-04-01T03:40:59;8.20;41.70
530;DHT22;251;48.704;9.210;2023-04-01T03:43:26;7.80;41.40
530;DHT22;251;48.704;9.210;2023-04-01T03:45:53;7.80;40.50
530;DHT22;251;48.704;9.210;2023-04-01T03:48:20;7.70;40.00
530;DHT22;251;48.704;9.210;2023-04-01T03:50:48;7.70;40.00
530;DHT22;251;48.704;9.210;2023-04-01T03:53:15;7.80;40.10
530;DHT22;251;48.704;9.210;2023-04-01T03:55:44;7.80;40.20
530;DHT22;251;48.704;9.210;2023-04-01T03:58:12;7.90;40.20
530;DHT22;251;48.704;9.210;2023-04-01T04:00:38;7.70;39.50
530;DHT22;251;48.704;9.210;2023-04-01T04:03:06;7.80;40.00
530;DHT22;251;48.704;9.210;2023-04-01T04:05:34;7.90;39.40
530;DHT22;251;48.704;9.210;2023-04-01T04:08:03;7.80;39.50
530;DHT22;251;48.704;9.210;2023-04-01T04:10:31;8.00;39.30
530;DHT22;251;48.704;9.210;2023-04-01T04:12:57;7.80;38.80
530;DHT22;251;48.704;9.210;2023-04-01T04:15:27;7.80;39.00
530;DHT22;251;48.704;9.210;2023-04-01T04:17:54;7.80;38.50
530;DHT22;251;48.704;9.210;2023-04-01T04:20:21;7.70;38.40
530;DHT22;251;48.704;9.210;2023-04-01T04:22:48;7.80;39.40
530;DHT22;251;48.704;9.210;2023-04-01T04:25:16;7.80;39.40
530;DHT22;251;48.704;9.210;2023-04-01T04:27:44;7.60;39.40
530;DHT22;251;48.704;9.210;2023-04-01T04:30:13;7.80;38.90
530;DHT22;251;48.704;9.210;2023-04-01T04:32:40;7.60;39.00
530;DHT22;251;48.704;9.210;2023-04-01T04:35:08;7.50;38.40
530;DHT22;251;48.704;9.210;2023-04-01T04:37:35;7.40;38.60
530;DHT22;251;48.704;9.210;2023-04-01T04:40:02;7.50;38.90
530;DHT22;251;48.704;9.210;2023-04-01T04:42:31;7.40;39.80
530;DHT22;251;48.704;9.210;2023-04-01T04:45:08;7.60;40.00
530;DHT22;251;48.704;9.210;2023-04-01T04:47:38;7.30;39.70
530;DHT22;251;48.704;9.210;2023-04-01T04:50:06;7.50;41.50
530;DHT22;251;48.704;9.210;2023-04-01T04:52:35;7.50;41.00
530;DHT22;251;48.704;9.210;2023-04-01T04:55:03;7.50;40.90
530;DHT22;251;48.704;9.210;2023-04-01T04:57:31;7.60;41.60
530;DHT22;251;48.704;9.210;2023-04-01T04:59:58;7.40;41.10
530;DHT22;251;48.704;9.210;2023-04-01T05:02:42;7.40;41.50
530;DHT22;251;48.704;9.210;2023-04-01T05:05:09;7.40;41.90
530;DHT22;251;48.704;9.210;2023-04-01T05:07:36;7.70;42.20
530;DHT22;251;48.704;9.210;2023-04-01T05:10:04;7.70;42.40
530;DHT22;251;48.704;9.210;2023-04-01T05:12:32;7.40;43.30
530;DHT22;251;48.704;9.210;2023-04-01T05:15:02;7.30;44.10
530;DHT22;251;48.704;9.210;2023-04-01T05:17:30;7.50;43.70
530;DHT22;251;48.704;9.210;2023-04-01T05:19:56;7.60;44.10
530;DHT22;251;48.704;9.210;2023-04-01T05:22:23;7.70;44.30
530;DHT22;251;48.704;9.210;2023-04-01T05:24:51;7.70;44.60
530;DHT22;251;48.704;9.210;2023-04-01T05:27:18;7.70;44.00
530;DHT22;251;48.704;9.210;2023-04-01T05:29:46;7.70;43.70
530;DHT22;251;48.704;9.210;2023-04-01T05:32:33;7.80;43.30
530;DHT22;251;48.704;9.210;2023-04-01T05:35:00;7.40;42.50
530;DHT22;251;48.704;9.210;2023-04-01T05:37:27;7.80;42.60
530;DHT22;251;48.704;9.210;2023-04-01T05:39:54;7.80;40.70
530;DHT22;251;48.704;9.210;2023-04-01T05:42:21;7.70;41.30
530;DHT22;251;48.704;9.210;2023-04-01T05:44:49;7.80;41.50
530;DHT22;251;48.704;9.210;2023-04-01T05:47:39;7.80;41.40
530;DHT22;251;48.704;9.210;2023-04-01T05:50:06;7.70;41.90
530;DHT22;251;48.704;9.210;2023-04-01T05:52:33;7.80;41.10
530;DHT22;251;48.704;9.210;2023-04-01T05:54:59;7.80;40.90
530;DHT22;251;48.704;9.210;2023-04-01T05:57:26;8.00;40.60
530;DHT22;251;48.704;9.210;2023-04-01T05:59:55;8.10;39.40
530;DHT22;251;48.704;9.210;2023-04-01T06:02:22;7.90;39.70
530;DHT22;251;48.704;9.210;2023-04-01T06:04:49;7.80;38.80
530;DHT22;251;48.704;9.210;2023-04-01T06:07:21;7.90;38.80
530;DHT22;251;48.704;9.210;2023-04-01T06:09:48;8.10;38.80
530;DHT22;251;48.704;9.210;2023-04-01T06:12:45;8.20;38.50
530;DHT22;251;48.704;9.210;2023-04-01T06:15:23;8.10;38.20
530;DHT22;251;48.704;9.210;2023-04-01T06:18:10;8.20;37.20
530;DHT22;251;48.704;9.210;2023-04-01T06:20:44;8.10;35.60
530;DHT22;251;48.704;9.210;2023-04-01T06:23:28;8.30;37.40
530;DHT22;251;48.704;9.210;2023-04-01T06:26:11;8.20;36.80
530;DHT22;251;48.704;9.210;2023-04-01T06:28:52;8.20;35.50
530;DHT22;251;48.704;9.210;2023-04-01T06:31:35;8.20;36.20
530;DHT22;251;48.704;9.210;2023-04-01T06:34:28;8.20;36.00
530;DHT22;251;48.704;9.210;2023-04-01T06:37:10;8.50;36.20
530;DHT22;251;48.704;9.210;2023-04-01T06:40:16;8.70;36.30
530;DHT22;251;48.704;9.210;2023-04-01T06:42:58;8.70;35.00
530;DHT22;251;48.704;9.210;2023-04-01T06:45:51;8.70;34.10
530;DHT22;251;48.704;9.210;2023-04-01T06:48:51;8.60;34.50
530;DHT22;251;48.704;9.210;2023-04-01T06:51:56;8.50;34.50
530;DHT22;251;48.704;9.210;2023-04-01T06:55:17;8.70;34.30
530;DHT22;251;48.704;9.210;2023-04-01T06:58:26;8.70;34.40
530;DHT22;251;48.704;9.210;2023-04-01T07:00:56;8.60;33.50
530;DHT22;251;48.704;9.210;2023-04-01T07:03:29;8.50;33.60
530;DHT22;251;48.704;9.210;2023-04-01T07:06:03;8.60;33.70
530;DHT22;251;48.704;9.210;2023-04-01T07:08:36;8.70;34.10
530;DHT22;251;48.704;9.210;2023-04-01T07:11:06;8.50;34.40
530;DHT22;251;48.704;9.210;2023-04-01T07:13:55;8.50;33.70
530;DHT22;251;48.704;9.210;2023-04-01T07:16:29;8.50;34.20
530;DHT22;251;48.704;9.210;2023-04-01T07:18:59;8.60;33.40
530;DHT22;251;48.704;9.210;2023-04-01T07:21:44;8.50;33.70
530;DHT22;251;48.704;9.210;2023-04-01T07:24:24;8.50;34.60
530;DHT22;251;48.704;9.210;2023-04-01T07:27:03;9.00;34.60
530;DHT22;251;48.704;9.210;2023-04-01T07:29:34;8.50;34.30
530;DHT22;251;48.704;9.210;2023-04-01T07:32:27;8.90;35.10
530;DHT22;251;48.704;9.210;2023-04-01T07:35:09;8.90;33.60
530;DHT22;251;48.704;9.210;2023-04-01T07:37:52;9.00;34.90
530;DHT22;251;48.704;9.210;2023-04-01T07:40:26;8.60;34.50
530;DHT22;251;48.704;9.210;2023-04-01T07:46:19;8.80;35.50
530;DHT22;251;48.704;9.210;2023-04-01T07:48:55;8.80;34.50
530;DHT22;251;48.704;9.210;2023-04-01T07:51:27;9.00;34.90
530;DHT22;251;48.704;9.210;2023-04-01T07:54:03;9.00;34.90
530;DHT22;251;48.704;9.210;2023-04-01T07:56:36;8.90;35.70
530;DHT22;251;48.704;9.210;2023-04-01T07:59:15;8.90;35.10
530;DHT22;251;48.704;9.210;2023-04-01T08:02:03;8.80;35.90
530;DHT22;251;48.704;9.210;2023-04-01T08:04:45;9.00;35.70
530;DHT22;251;48.704;9.210;2023-04-01T08:07:17;8.80;34.90
530;DHT22;251;48.704;9.210;2023-04-01T08:10:12;9.10;34.80
530;DHT22;251;48.704;9.210;2023-04-01T08:13:08;9.00;35.60
530;DHT22;251;48.704;9.210;2023-04-01T08:16:08;9.00;35.20
530;DHT22;251;48.704;9.210;2023-04-01T08:18:54;8.80;35.70
530;DHT22;251;48.704;9.210;2023-04-01T08:21:28;9.20;37.70
530;DHT22;251;48.704;9.210;2023-04-01T08:24:00;9.20;37.50
530;DHT22;251;48.704;9.210;2023-04-01T08:26:35;9.00;37.80
530;DHT22;251;48.704;9.210;2023-04-01T08:29:09;9.00;40.40
530;DHT22;251;48.704;9.210;2023-04-01T08:31:43;9.20;38.40
530;DHT22;251;48.704;9.210;2023-04-01T08:34:17;9.40;37.20
530;DHT22;251;48.704;9.210;2023-04-01T08:36:50;9.40;36.00
530;DHT22;251;48.704;9.210;2023-04-01T08:39:24;9.20;35.40
530;DHT22;251;48.704;9.210;2023-04-01T08:42:24;9.40;36.70
530;DHT22;251;48.704;9.210;2023-04-01T08:45:21;9.20;36.00
530;DHT22;251;48.704;9.210;2023-04-01T08:48:15;9.20;37.40
530;DHT22;251;48.704;9.210;2023-04-01T08:51:01;9.20;38.90
530;DHT22;251;48.704;9.210;2023-04-01T08:53:50;9.40;39.30
530;DHT22;251;48.704;9.210;2023-04-01T08:56:26;8.90;39.80
530;DHT22;251;48.704;9.210;2023-04-01T08:59:16;8.80;40.20
530;DHT22;251;48.704;9.210;2023-04-01T09:02:05;8.90;40.40
530;DHT22;251;48.704;9.210;2023-04-01T09:05:26;8.80;41.30
530;DHT22;251;48.704;9.210;2023-04-01T09:08:02;8.70;42.10
530;DHT22;251;48.704;9.210;2023-04-01T09:10:50;8.70;43.50
530;DHT22;251;48.704;9.210;2023-04-01T09:14:03;8.50;43.70
530;DHT22;251;48.704;9.210;2023-04-01T09:17:11;8.50;43.60
530;DHT22;251;48.704;9.210;2023-04-01T09:22:52;8.70;44.20
530;DHT22;251;48.704;9.210;2023-04-01T09:25:44;8.80;45.90
530;DHT22;251;48.704;9.210;2023-04-01T09:28:18;8.90;45.70
530;DHT22;251;48.704;9.210;2023-04-01T09:31:15;9.00;43.70
530;DHT22;251;48.704;9.210;2023-04-01T09:34:26;8.90;43.40
530;DHT22;251;48.704;9.210;2023-04-01T09:37:17;9.40;44.90
530;DHT22;251;48.704;9.210;2023-04-01T09:40:13;9.20;45.40
530;DHT22;251;48.704;9.210;2023-04-01T09:42:49;9.20;43.20
530;DHT22;251;48.704;9.210;2023-04-01T09:45:46;9.50;41.80
530;DHT22;251;48.704;9.210;2023-04-01T09:48:25;9.70;40.20
530;DHT22;251;48.704;9.210;2023-04-01T09:51:05;9.50;39.90
530;DHT22;251;48.704;9.210;2023-04-01T09:53:46;9.30;38.50
530;DHT22;251;48.704;9.210;2023-04-01T09:59:31;9.20;37.60
530;DHT22;251;48.704;9.210;2023-04-01T10:09:03;9.40;39.10
530;DHT22;251;48.704;9.210;2023-04-01T10:15:11;9.10;37.50
530;DHT22;251;48.704;9.210;2023-04-01T10:21:11;9.40;39.70
530;DHT22;251;48.704;9.210;2023-04-01T10:24:10;9.30;38.60
530;DHT22;251;48.704;9.210;2023-04-01T10:27:10;9.40;38.70
530;DHT22;251;48.704;9.210;2023-04-01T10:30:21;9.50;37.40
530;DHT22;251;48.704;9.210;2023-04-01T10:33:15;9.50;34.60
530;DHT22;251;48.704;9.210;2023-04-01T10:36:07;9.10;37.40
530;DHT22;251;48.704;9.210;2023-04-01T10:42:14;9.70;35.40
530;DHT22;251;48.704;9.210;2023-04-01T10:45:38;9.60;37.40
530;DHT22;251;48.704;9.210;2023-04-01T10:48:39;9.90;38.20
530;DHT22;251;48.704;9.210;2023-04-01T10:51:25;9.90;37.90
530;DHT22;251;48.704;9.210;2023-04-01T10:54:13;9.80;34.40
530;DHT22;251;48.704;9.210;2023-04-01T10:56:51;9.90;34.70
530;DHT22;251;48.704;9.210;2023-04-01T11:00:07;10.20;34.90
530;DHT22;251;48.704;9.210;2023-04-01T11:06:40;10.20;30.90
530;DHT22;251;48.704;9.210;2023-04-01T11:15:36;10.20;30.00
530;DHT22;251;48.704;9.210;2023-04-01T11:18:25;10.30;29.80
530;DHT22;251;48.704;9.210;2023-04-01T11:24:13;10.40;28.80
530;DHT22;251;48.704;9.210;2023-04-01T11:27:02;10.20;27.90
530;DHT22;251;48.704;9.210;2023-04-01T11:30:17;10.40;29.40
530;DHT22;251;48.704;9.210;2023-04-01T11:32:53;10.20;27.80
530;DHT22;251;48.704;9.210;2023-04-01T11:35:33;10.20;27.80
530;DHT22;251;48.704;9.210;2023-04-01T11:38:15;10.10;27.30
530;DHT22;251;48.704;9.210;2023-04-01T11:40:49;10.60;27.90
530;DHT22;251;48.704;9.210;2023-04-01T11:43:43;10.50;28.20
530;DHT22;251;48.704;9.210;2023-04-01T11:46:33;10.80;28.60
530;DHT22;251;48.704;9.210;2023-04-01T11:49:22;10.60;26.60
530;DHT22;251;48.704;9.210;2023-04-01T11:52:15;10.50;25.70
530;DHT22;251;48.704;9.210;2023-04-01T11:55:00;10.60;24.90
530;DHT22;251;48.704;9.210;2023-04-01T11:58:12;10.80;25.30
530;DHT22;251;48.704;9.210;2023-04-01T12:01:04;10.40;24.00
530;DHT22;251;48.704;9.210;2023-04-01T12:03:47;10.70;24.80
530;DHT22;251;48.704;9.210;2023-04-01T12:06:22;10.60;25.90
530;DHT22;251;48.704;9.210;2023-04-01T12:08:54;10.60;24.50
530;DHT22;251;48.704;9.210;2023-04-01T12:11:30;10.50;24.50
530;DHT22;251;48.704;9.210;2023-04-01T12:14:05;10.60;24.90
530;DHT22;251;48.704;9.210;2023-04-01T12:16:43;10.50;24.60
530;DHT22;251;48.704;9.210;2023-04-01T12:19:19;10.40;23.70
530;DHT22;251;48.704;9.210;2023-04-01T12:22:03;10.50;23.60
530;DHT22;251;48.704;9.210;2023-04-01T12:24:46;10.80;24.80
530;DHT22;251;48.704;9.210;2023-04-01T12:27:38;10.60;24.10
530;DHT22;251;48.704;9.210;2023-04-01T12:30:35;10.80;24.10
530;DHT22;251;48.704;9.210;2023-04-01T12:33:42;10.60;24.30
530;DHT22;251;48.704;9.210;2023-04-01T12:36:20;10.80;23.50
530;DHT22;251;48.704;9.210;2023-04-01T12:39:07;10.80;25.30
530;DHT22;251;48.704;9.210;2023-04-01T12:41:44;10.80;25.50
530;DHT22;251;48.704;9.210;2023-04-01T12:44:42;10.80;26.10
530;DHT22;251;48.704;9.210;2023-04-01T12:47:43;10.80;26.70
530;DHT22;251;48.704;9.210;2023-04-01T12:53:31;11.00;25.70
530;DHT22;251;48.704;9.210;2023-04-01T12:56:06;11.30;24.50
530;DHT22;251;48.704;9.210;2023-04-01T12:58:57;10.90;24.40
530;DHT22;251;48.704;9.210;2023-04-01T13:01:35;11.30;23.60
530;DHT22;251;48.704;9.210;2023-04-01T13:04:32;11.40;23.10
530;DHT22;251;48.704;9.210;2023-04-01T13:10:04;11.60;21.70
530;DHT22;251;48.704;9.210;2023-04-01T13:12:48;11.30;21.10
530;DHT22;251;48.704;9.210;2023-04-01T13:15:32;11.20;21.40
530;DHT22;251;48.704;9.210;2023-04-01T13:18:11;11.30;21.30
530;DHT22;251;48.704;9.210;2023-04-01T13:20:44;11.40;20.80
530;DHT22;251;48.704;9.210;2023-04-01T13:23:24;11.40;21.10
530;DHT22;251;48.704;9.210;2023-04-01T13:26:04;11.30;21.10
530;DHT22;251;48.704;9.210;2023-04-01T13:28:37;11.30;20.70
530;DHT22;251;48.704;9.210;2023-04-01T13:31:09;11.20;20.60
530;DHT22;251;48.704;9.210;2023-04-01T13:33:47;11.30;21.10
530;DHT22;251;48.704;9.210;2023-04-01T13:36:23;11.00;19.70
530;DHT22;251;48.704;9.210;2023-04-01T13:39:06;10.90;20.30
530;DHT22;251;48.704;9.210;2023-04-01T13:41:48;11.00;20.70
530;DHT22;251;48.704;9.210;2023-04-01T13:44:21;11.10;19.90
530;DHT22;251;48.704;9.210;2023-04-01T13:47:12;10.90;20.80
530;DHT22;251;48.704;9.210;2023-04-01T13:50:07;11.00;21.20
530;DHT22;251;48.704;9.210;2023-04-01T13:53:00;10.80;21.70
530;DHT22;251;48.704;9.210;2023-04-01T13:55:48;11.20;21.10
530;DHT22;251;48.704;9.210;2023-04-01T14:01:13;10.90;20.70
530;DHT22;251;48.704;9.210;2023-04-01T14:03:56;11.20;21.20
530;DHT22;251;48.704;9.210;2023-04-01T14:06:33;11.20;21.20
530;DHT22;251;48.704;9.210;2023-04-01T14:09:34;11.50;20.60
530;DHT22;251;48.704;9.210;2023-04-01T14:12:13;11.40;20.50
530;DHT22;251;48.704;9.210;2023-04-01T14:14:53;11.20;21.00
530;DHT22;251;48.704;9.210;2023-04-01T14:17:34;11.30;20.90
530;DHT22;251;48.704;9.210;2023-04-01T14:20:24;11.10;21.30
530;DHT22;251;48.704;9.210;2023-04-01T14:23:07;11.30;20.90
530;DHT22;251;48.704;9.210;2023-04-01T14:25:55;11.20;21.30
530;DHT22;251;48.704;9.210;2023-04-01T14:28:31;11.60;20.70
530;DHT22;251;48.704;9.210;2023-04-01T14:31:18;11.20;21.10
530;DHT22;251;48.704;9.210;2023-04-01T14:33:57;11.00;21.90
530;DHT22;251;48.704;9.210;2023-04-01T14:36:51;10.90;21.40
530;DHT22;251;48.704;9.210;2023-04-01T14:39:49;11.40;21.60
530;DHT22;251;48.704;9.210;2023-04-01T14:42:39;11.30;22.10
530;DHT22;251;48.704;9.210;2023-04-01T14:45:24;10.90;21.50
530;DHT22;251;48.704;9.210;2023-04-01T14:47:54;11.10;21.10
530;DHT22;251;48.704;9.210;2023-04-01T14:50:25;11.20;21.80
530;DHT22;251;48.704;9.210;2023-04-01T14:52:59;10.90;20.90
530;DHT22;251;48.704;9.210;2023-04-01T14:55:48;10.90;20.70
530;DHT22;251;48.704;9.210;2023-04-01T14:58:17;10.90;21.50
530;DHT22;251;48.704;9.210;2023-04-01T15:00:54;11.10;20.40
530;DHT22;251;48.704;9.210;2023-04-01T15:03:26;10.90;20.30
530;DHT22;251;48.704;9.210;2023-04-01T15:06:14;10.90;20.00
530;DHT22;251;48.704;9.210;2023-04-01T15:08:50;10.80;20.00
530;DHT22;251;48.704;9.210;2023-04-01T15:11:28;10.90;20.30
530;DHT22;251;48.704;9.210;2023-04-01T15:14:19;11.10;20.00
530;DHT22;251;48.704;9.210;2023-04-01T15:16:55;11.20;21.30
530;DHT22;251;48.704;9.210;2023-04-01T15:19:36;11.00;20.90
530;DHT22;251;48.704;9.210;2023-04-01T15:22:19;10.90;21.10
530;DHT22;251;48.704;9.210;2023-04-01T15:25:02;10.90;20.60
530;DHT22;251;48.704;9.210;2023-04-01T15:27:37;10.90;20.90
530;DHT22;251;48.704;9.210;2023-04-01T15:30:33;10.80;20.80
530;DHT22;251;48.704;9.210;2023-04-01T15:33:17;10.80;21.00
530;DHT22;251;48.704;9.210;2023-04-01T15:35:49;11.10;21.80
530;DHT22;251;48.704;9.210;2023-04-01T15:38:27;10.90;21.90
530;DHT22;251;48.704;9.210;2023-04-01T15:41:01;11.10;21.80
530;DHT22;251;48.704;9.210;2023-04-01T15:43:40;10.80;21.70
530;DHT22;251;48.704;9.210;2023-04-01T15:46:29;10.90;21.50
530;DHT22;251;48.704;9.210;2023-04-01T15:49:08;11.10;21.90
530;DHT22;251;48.704;9.210;2023-04-01T15:51:44;10.90;21.50
530;DHT22;251;48.704;9.210;2023-04-01T15:54:37;11.20;21.50
530;DHT22;251;48.704;9.210;2023-04-01T15:57:14;11.20;21.90
530;DHT22;251;48.704;9.210;2023-04-01T16:00:04;11.00;21.70
530;DHT22;251;48.704;9.210;2023-04-01T16:02:44;11.10;21.90
530;DHT22;251;48.704;9.210;2023-04-01T16:05:25;10.90;21.70
530;DHT22;251;48.704;9.210;2023-04-01T16:08:12;10.90;22.30
530;DHT22;251;48.704;9.210;2023-04-01T16:10:56;10.80;22.70
530;DHT22;251;48.704;9.210;2023-04-01T16:13:37;10.80;23.40
530;DHT22;251;48.704;9.210;2023-04-01T16:16:16;10.80;22.00
530;DHT22;251;48.704;9.210;2023-04-01T16:18:59;10.70;23.50
530;DHT22;251;48.704;9.210;2023-04-01T16:21:36;10.50;23.40
530;DHT22;251;48.704;9.210;2023-04-01T16:24:10;10.60;25.00
530;DHT22;251;48.704;9.210;2023-04-01T16:26:47;10.60;24.80
530;DHT22;251;48.704;9.210;2023-04-01T16:29:23;10.60;25.60
530;DHT22;251;48.704;9.210;2023-04-01T16:31:58;10.50;25.50
530;DHT22;251;48.704;9.210;2023-04-01T16:34:31;10.60;25.40
530;DHT22;251;48.704;9.210;2023-04-01T16:37:07;10.40;24.60
530;DHT22;251;48.704;9.210;2023-04-01T16:39:44;10.50;25.20
530;DHT22;251;48.704;9.210;2023-04-01T16:42:34;10.50;25.00
530;DHT22;251;48.704;9.210;2023-04-01T16:45:22;10.30;25.10
530;DHT22;251;48.704;9.210;2023-04-01T16:47:54;10.70;25.20
530;DHT22;251;48.704;9.210;2023-04-01T16:50:23;10.50;24.30
530;DHT22;251;48.704;9.210;2023-04-01T16:53:02;10.40;24.90
530;DHT22;251;48.704;9.210;2023-04-01T16:55:46;10.60;25.40
530;DHT22;251;48.704;9.210;2023-04-01T16:58:21;10.40;25.10
530;DHT22;251;48.704;9.210;2023-04-01T17:00:51;10.70;24.30
530;DHT22;251;48.704;9.210;2023-04-01T17:03:24;10.50;22.80
530;DHT22;251;48.704;9.210;2023-04-01T17:06:06;10.60;23.20
530;DHT22;251;48.704;9.210;2023-04-01T17:08:52;10.60;23.50
530;DHT22;251;48.704;9.210;2023-04-01T17:11:25;10.60;23.70
530;DHT22;251;48.704;9.210;2023-04-01T17:14:03;10.60;23.30
530;DHT22;251;48.704;9.210;2023-04-01T17:16:52;10.50;23.10
530;DHT22;251;48.704;9.210;2023-04-01T17:19:30;10.60;23.30
530;DHT22;251;48.704;9.210;2023-04-01T17:22:07;10.70;23.40
530;DHT22;251;48.704;9.210;2023-04-01T17:24:53;10.50;23.70
530;DHT22;251;48.704;9.210;2023-04-01T17:27:34;10.50;23.30
530;DHT22;251;48.704;9.210;2023-04-01T17:30:15;10.50;22.60
530;DHT22;251;48.704;9.210;2023-04-01T17:32:53;10.50;23.00
530;DHT22;251;48.704;9.210;2023-04-01T17:35:26;10.40;24.00
530;DHT22;251;48.704;9.210;2023-04-01T17:38:07;10.40;23.60
530;DHT22;251;48.704;9.210;2023-04-01T17:40:44;10.60;24.20
530;DHT22;251;48.704;9.210;2023-04-01T17:43:22;10.60;24.30
530;DHT22;251;48.704;9.210;2023-04-01T17:45:54;10.70;24.30
530;DHT22;251;48.704;9.210;2023-04-01T17:48:29;10.60;24.30
530;DHT22;251;48.704;9.210;2023-04-01T17:53:54;10.70;24.50
530;DHT22;251;48.704;9.210;2023-04-01T17:56:34;10.50;24.70
530;DHT22;251;48.704;9.210;2023-04-01T17:59:10;10.30;24.50
530;DHT22;251;48.704;9.210;2023-04-01T18:01:54;10.20;24.70
530;DHT22;251;48.704;9.210;2023-04-01T18:04:40;10.60;25.10
530;DHT22;251;48.704;9.210;2023-04-01T18:07:31;10.00;25.10
530;DHT22;251;48.704;9.210;2023-04-01T18:10:13;10.10;25.20
530;DHT22;251;48.704;9.210;2023-04-01T18:13:07;10.20;25.90
530;DHT22;251;48.704;9.210;2023-04-01T18:15:40;10.40;25.90
530;DHT22;251;48.704;9.210;2023-04-01T18:18:30;10.40;27.20
530;DHT22;251;48.704;9.210;2023-04-01T18:21:04;10.40;27.00
530;DHT22;251;48.704;9.210;2023-04-01T18:23:38;10.20;28.00
530;DHT22;251;48.704;9.210;2023-04-01T18:26:08;10.20;27.50
530;DHT22;251;48.704;9.210;2023-04-01T18:28:39;10.30;27.90
530;DHT22;251;48.704;9.210;2023-04-01T18:31:12;10.20;28.50
530;DHT22;251;48.704;9.210;2023-04-01T18:33:48;10.30;29.10
530;DHT22;251;48.704;9.210;2023-04-01T18:36:21;10.10;29.20
530;DHT22;251;48.704;9.210;2023-04-01T18:38:52;10.20;27.50
530;DHT22;251;48.704;9.210;2023-04-01T18:41:28;9.90;27.50
530;DHT22;251;48.704;9.210;2023-04-01T18:44:22;10.00;27.30
530;DHT22;251;48.704;9.210;2023-04-01T18:46:58;9.80;27.50
530;DHT22;251;48.704;9.210;2023-04-01T18:49:30;9.90;28.40
530;DHT22;251;48.704;9.210;2023-04-01T18:52:08;9.80;27.80